Terminal Aerodrome Forecast
Issued by NWS Billings, MT

Home | Current Version | Previous Version | Graphics & Text | Print | Product List | Glossary On
Versions: 1 2 3 4 5 6 7 8 9 10 11 12 13 14 15 16 17 18 19 20 21 22 23
000
FTUS45 KBYZ 191731
TAFMLS
TAF
KMLS 191731Z 1918/2018 30018G26KT P6SM BKN100
     FM200100 32009KT P6SM FEW100
     FM201600 32015G21KT P6SM FEW100=

USA.gov is the U.S. government's official web portal to all federal, state and local government web resources and services.